Time;durP1;ratioP1;P1;durP2;ratioP2;P2;SDS_P1;SDS_P2;PMS_P1;PMS_P2;Temp;Humidity;BMP_temperature;BMP_pressure;BME280_temperature;BME280_humidity;BME280_pressure;Samples;Min_cycle;Max_cycle;Signal;HPM_P1;HPM_P2
2021/08/10 00:01:07;;;;;;;13.50;2.35;;;;;;;16.51;69.04;100627.97;125714;1096;22786;-78
2021/08/10 00:03:41;;;;;;;10.60;2.60;;;;;;;16.52;69.41;100631.56;125609;1096;22758;-79
2021/08/10 00:06:12;;;;;;;10.85;2.10;;;;;;;16.49;69.40;100622.08;125680;1096;25976;-78
2021/08/10 00:08:43;;;;;;;12.00;2.10;;;;;;;16.50;69.58;100637.72;125649;1096;23222;-78
2021/08/10 00:11:16;;;;;;;8.30;2.20;;;;;;;16.49;69.49;100630.53;125786;1096;22837;-78
2021/08/10 00:13:47;;;;;;;13.90;3.13;;;;;;;16.51;70.21;100630.04;125599;1096;23402;-79
2021/08/10 00:16:19;;;;;;;12.40;2.20;;;;;;;16.52;70.72;100637.20;125693;1096;24621;-77
2021/08/10 00:18:52;;;;;;;9.13;2.27;;;;;;;16.50;70.21;100632.08;125777;1096;22887;-77
2021/08/10 00:21:24;;;;;;;10.57;2.10;;;;;;;16.50;70.46;100626.45;125691;1096;24502;-77
2021/08/10 00:23:55;;;;;;;13.85;2.60;;;;;;;16.50;70.32;100634.13;125733;1096;26549;-77
2021/08/10 00:26:29;;;;;;;8.60;2.10;;;;;;;16.50;70.23;100629.27;125762;1096;23422;-78
2021/08/10 00:29:04;;;;;;;9.80;2.10;;;;;;;16.52;70.62;100628.74;125667;1096;22819;-77
2021/08/10 00:31:35;;;;;;;9.90;2.05;;;;;;;16.52;70.40;100628.74;125677;1096;22807;-77
2021/08/10 00:34:07;;;;;;;7.75;1.70;;;;;;;16.50;70.79;100626.45;125772;1096;22820;-78
2021/08/10 00:36:46;;;;;;;;;;;;;;;16.47;70.61;100626.67;125689;1096;24496;-78
2021/08/10 00:39:18;;;;;;;9.00;2.10;;;;;;;16.42;70.69;100625.38;125696;1097;21460;-77
2021/08/10 00:41:50;;;;;;;8.30;1.70;;;;;;;16.40;70.59;100625.13;125784;1096;22785;-77
2021/08/10 00:44:21;;;;;;;11.55;1.75;;;;;;;16.41;70.93;100628.72;125780;1096;22933;-77
2021/08/10 00:46:52;;;;;;;8.65;2.30;;;;;;;16.40;70.98;100627.95;125653;1096;23498;-78
2021/08/10 00:49:24;;;;;;;7.70;2.23;;;;;;;16.40;70.81;100627.17;125706;1096;24352;-77
2021/08/10 00:51:56;;;;;;;14.60;2.60;;;;;;;16.37;70.96;100628.95;125809;1096;22800;-77
2021/08/10 00:54:28;;;;;;;9.95;2.20;;;;;;;16.36;71.21;100629.47;125720;1096;22803;-77
2021/08/10 00:56:59;;;;;;;10.35;2.25;;;;;;;16.33;71.54;100625.61;125707;1096;22942;-78
2021/08/10 00:59:30;;;;;;;14.80;2.95;;;;;;;16.33;71.29;100627.66;125733;1096;22802;-77
2021/08/10 01:02:01;;;;;;;10.15;2.20;;;;;;;16.31;71.25;100628.17;125646;1096;26321;-77
2021/08/10 01:04:36;;;;;;;8.40;2.10;;;;;;;16.33;71.29;100636.11;125650;1096;22856;-76
2021/08/10 01:07:13;;;;;;;8.95;2.00;;;;;;;16.33;71.88;100634.06;125809;1095;22842;-77
2021/08/10 01:09:51;;;;;;;8.65;2.30;;;;;;;16.33;71.34;100634.06;125756;1096;23428;-78
2021/08/10 01:12:28;;;;;;;13.65;2.40;;;;;;;16.34;71.78;100624.34;125862;1096;22773;-77
2021/08/10 01:15:09;;;;;;;9.50;1.95;;;;;;;16.35;71.93;100627.91;125755;1096;26296;-77
2021/08/10 01:17:49;;;;;;;12.30;2.40;;;;;;;16.36;71.98;100629.47;125703;1096;26399;-77
2021/08/10 01:20:52;;;;;;;9.55;2.30;;;;;;;16.35;71.94;100630.73;125741;1096;22777;-78
2021/08/10 01:23:27;;;;;;;11.80;2.10;;;;;;;16.38;72.13;100627.69;125666;1099;25545;-79
2021/08/10 01:26:05;;;;;;;11.07;2.43;;;;;;;16.41;71.97;100625.90;125593;1100;22799;-78
2021/08/10 01:28:51;;;;;;;10.50;1.95;;;;;;;16.43;72.17;100629.73;125701;1100;26095;-78
2021/08/10 01:31:26;;;;;;;13.63;3.07;;;;;;;16.44;72.23;100636.14;125804;1100;22867;-77
2021/08/10 01:34:02;;;;;;;12.40;3.45;;;;;;;16.47;71.95;100623.86;125754;1100;22989;-77
2021/08/10 01:36:35;;;;;;;9.90;2.37;;;;;;;16.48;72.09;100616.92;125749;1099;22890;-76
2021/08/10 01:39:07;;;;;;;11.80;2.40;;;;;;;16.50;71.96;100628.48;125793;1099;25998;-77
2021/08/10 01:41:41;;;;;;;14.97;2.80;;;;;;;16.51;71.80;100618.77;125740;1100;23091;-79
2021/08/10 01:44:15;;;;;;;9.50;2.05;;;;;;;16.54;71.84;100623.36;125562;1100;26031;-77
2021/08/10 01:46:48;;;;;;;12.80;2.35;;;;;;;16.52;71.90;100617.47;125691;1100;22966;-78
2021/08/10 01:49:19;;;;;;;14.87;2.50;;;;;;;16.50;71.46;100625.67;125748;1098;24617;-78
2021/08/10 01:51:57;;;;;;;16.95;2.30;;;;;;;16.47;71.68;100621.78;125636;1100;22891;-78
2021/08/10 01:54:30;;;;;;;20.35;2.60;;;;;;;16.40;72.32;100619.48;125727;1100;22797;-78
2021/08/10 01:57:02;;;;;;;10.00;2.10;;;;;;;16.36;72.63;100623.83;125661;1100;25902;-79
2021/08/10 01:59:34;;;;;;;14.40;2.70;;;;;;;16.33;72.30;100622.02;125716;1099;27466;-78
2021/08/10 02:02:06;;;;;;;12.85;2.20;;;;;;;16.30;72.26;100617.42;125907;1096;25872;-80
2021/08/10 02:04:38;;;;;;;11.00;2.00;;;;;;;16.24;72.72;100611.78;125715;1096;26594;-78
2021/08/10 02:07:09;;;;;;;10.50;2.10;;;;;;;16.18;72.14;100608.94;125760;1096;22845;-79
2021/08/10 02:09:46;;;;;;;10.73;2.33;;;;;;;16.13;72.59;100609.71;125711;1096;26025;-78
2021/08/10 02:12:17;;;;;;;9.20;1.80;;;;;;;16.07;72.75;100603.30;125781;1096;22834;-77
2021/08/10 02:14:49;;;;;;;8.45;2.30;;;;;;;16.05;72.83;100593.81;125701;1095;25996;-78
2021/08/10 02:17:20;;;;;;;8.45;2.05;;;;;;;16.00;72.90;100586.11;125769;1096;22813;-78
2021/08/10 02:19:52;;;;;;;10.85;2.95;;;;;;;15.98;72.45;100592.26;125792;1094;22808;-78
2021/08/10 02:22:26;;;;;;;11.40;2.30;;;;;;;15.90;72.60;100594.03;125664;1096;22841;-77
2021/08/10 02:25:05;;;;;;;10.40;2.20;;;;;;;15.86;72.59;100593.51;125908;1096;22788;-77
2021/08/10 02:27:54;;;;;;;12.90;2.60;;;;;;;15.80;72.47;100586.31;125909;1096;22920;-77
2021/08/10 02:30:30;;;;;;;8.55;1.98;;;;;;;15.74;73.04;100585.53;125705;1096;24448;-77
2021/08/10 02:33:05;;;;;;;7.65;1.65;;;;;;;15.69;72.63;100594.70;125736;1096;22791;-78
2021/08/10 02:35:37;;;;;;;8.50;2.05;;;;;;;15.67;73.08;100581.15;125813;1096;22902;-78
2021/08/10 02:38:15;;;;;;;7.45;2.10;;;;;;;15.64;72.80;100587.03;125809;1096;22770;-77
2021/08/10 02:40:49;;;;;;;9.60;2.37;;;;;;;15.59;72.98;100587.77;125696;1096;23342;-76
2021/08/10 02:43:21;;;;;;;10.60;2.05;;;;;;;15.53;73.08;100581.34;125687;1094;22802;-76
2021/08/10 02:45:53;;;;;;;10.50;1.90;;;;;;;15.49;73.45;100590.03;125991;1095;26420;-77
2021/08/10 02:48:30;;;;;;;8.85;2.25;;;;;;;15.47;72.84;100588.99;125708;1096;22868;-77
2021/08/10 02:51:01;;;;;;;13.30;2.20;;;;;;;15.42;73.13;100587.66;125679;1095;23452;-77
2021/08/10 02:53:32;;;;;;;12.30;2.20;;;;;;;15.37;73.37;100596.86;125694;1095;22891;-76
2021/08/10 02:56:13;;;;;;;12.20;2.50;;;;;;;15.31;73.45;100591.18;125633;1096;22950;-77
2021/08/10 02:58:51;;;;;;;9.05;2.40;;;;;;;15.27;73.12;100589.88;125666;1096;22820;-77
2021/08/10 03:01:27;;;;;;;12.27;2.57;;;;;;;15.18;73.26;100585.25;126123;1095;27562;-77
2021/08/10 03:04:00;;;;;;;12.77;2.23;;;;;;;15.12;72.89;100587.26;125723;1096;23033;-77
2021/08/10 03:06:37;;;;;;;13.05;2.20;;;;;;;15.06;72.98;100575.18;125783;1096;22810;-77
2021/08/10 03:09:11;;;;;;;13.37;2.40;;;;;;;15.02;72.91;100585.14;125707;1095;25996;-77
2021/08/10 03:11:43;;;;;;;13.75;2.20;;;;;;;14.97;73.21;100585.87;125693;1096;22948;-77
2021/08/10 03:14:16;;;;;;;12.05;2.20;;;;;;;14.93;73.39;100580.48;125655;1096;22935;-77
2021/08/10 03:16:49;;;;;;;9.07;1.63;;;;;;;14.92;73.45;100578.93;125709;1096;22810;-77
2021/08/10 03:19:22;;;;;;;13.10;2.10;;;;;;;14.89;73.34;100577.14;125795;1096;22848;-78
2021/08/10 03:21:55;;;;;;;11.30;2.50;;;;;;;14.88;74.21;100588.86;125647;1096;22816;-77
2021/08/10 03:24:28;;;;;;;21.27;3.10;;;;;;;14.77;73.79;100588.80;125676;1096;22777;-76
2021/08/10 03:27:04;;;;;;;9.93;1.97;;;;;;;14.68;73.92;100594.59;125704;1096;22783;-77
2021/08/10 03:29:39;;;;;;;21.10;2.00;;;;;;;14.57;74.15;100598.85;125681;1096;22900;-79
2021/08/10 03:32:14;;;;;;;12.85;1.70;;;;;;;14.48;74.60;100596.21;125887;1096;22777;-77
2021/08/10 03:34:46;;;;;;;11.35;1.75;;;;;;;14.41;74.49;100588.25;125631;1096;24486;-77
2021/08/10 03:37:20;;;;;;;10.40;1.45;;;;;;;14.41;74.87;100584.66;125767;1096;22757;-77
2021/08/10 03:39:52;;;;;;;14.20;1.87;;;;;;;14.42;74.83;100578.54;125755;1096;22973;-77
2021/08/10 03:42:25;;;;;;;8.75;2.10;;;;;;;14.40;74.70;100585.95;125725;1096;27296;-77
2021/08/10 03:44:57;;;;;;;9.45;1.80;;;;;;;14.36;74.86;100588.21;125650;1096;22833;-78
2021/08/10 03:47:28;;;;;;;12.13;1.63;;;;;;;14.33;74.56;100586.38;125685;1096;22817;-77
2021/08/10 03:50:02;;;;;;;8.30;1.73;;;;;;;14.31;74.78;100586.88;125693;1096;23482;-77
2021/08/10 03:52:33;;;;;;;10.80;1.85;;;;;;;14.28;74.92;100585.06;125801;1096;22815;-77
2021/08/10 03:55:05;;;;;;;10.53;1.63;;;;;;;14.29;74.49;100580.22;125693;1096;26380;-78
2021/08/10 03:57:40;;;;;;;11.00;1.70;;;;;;;14.28;74.80;100581.44;125664;1096;23741;-77
2021/08/10 04:00:14;;;;;;;8.55;1.70;;;;;;;14.27;75.20;100582.72;125748;1096;22964;-77
2021/08/10 04:02:47;;;;;;;8.30;1.85;;;;;;;14.26;74.76;100590.37;125728;1096;22790;-77
2021/08/10 04:05:19;;;;;;;12.30;1.90;;;;;;;14.26;75.39;100589.59;125715;1096;22859;-77
2021/08/10 04:07:50;;;;;;;7.27;1.90;;;;;;;14.25;75.22;100585.25;125673;1096;22991;-77
2021/08/10 04:10:22;;;;;;;9.27;1.93;;;;;;;14.24;75.19;100581.67;125613;1096;22898;-77
2021/08/10 04:12:53;;;;;;;8.20;2.15;;;;;;;14.26;75.32;100575.55;125658;1096;27495;-79
2021/08/10 04:15:25;;;;;;;10.83;1.97;;;;;;;14.27;75.44;100582.72;125736;1096;22770;-77
2021/08/10 04:17:59;;;;;;;14.10;2.30;;;;;;;14.27;75.22;100583.50;125678;1095;22839;-77
2021/08/10 04:20:30;;;;;;;13.95;2.10;;;;;;;14.28;75.87;100571.02;125768;1095;22784;-77
2021/08/10 04:23:02;;;;;;;11.65;2.60;;;;;;;14.29;75.68;100563.37;125629;1096;22860;-78
2021/08/10 04:25:34;;;;;;;13.87;2.53;;;;;;;14.31;76.05;100566.45;125655;1096;25887;-78
2021/08/10 04:28:06;;;;;;;13.70;2.30;;;;;;;14.35;75.66;100569.80;126038;1096;23052;-79
2021/08/10 04:30:39;;;;;;;11.75;1.90;;;;;;;14.39;76.28;100565.51;125799;1096;22831;-76
2021/08/10 04:33:11;;;;;;;9.60;2.30;;;;;;;14.43;76.07;100562.47;125738;1096;27170;-77
2021/08/10 04:35:43;;;;;;;13.05;2.35;;;;;;;14.49;76.09;100557.66;125639;1096;27335;-77
2021/08/10 04:38:15;;;;;;;13.60;2.45;;;;;;;14.55;76.25;100555.66;125764;1096;22867;-77
2021/08/10 04:40:47;;;;;;;9.85;2.60;;;;;;;14.61;76.62;100556.47;125664;1096;22964;-77
2021/08/10 04:43:18;;;;;;;13.55;2.80;;;;;;;14.71;76.31;100559.88;125643;1097;24601;-78
2021/08/10 04:45:51;;;;;;;16.90;2.33;;;;;;;14.80;76.84;100562.48;125723;1095;22796;-78
2021/08/10 04:48:22;;;;;;;11.73;2.67;;;;;;;14.89;76.36;100557.45;125671;1097;22822;-78
2021/08/10 04:50:53;;;;;;;9.25;2.70;;;;;;;14.95;76.79;100547.02;125665;1096;22855;-79
2021/08/10 04:53:25;;;;;;;11.47;3.17;;;;;;;15.03;76.85;100550.89;125754;1095;22814;-77
2021/08/10 04:55:56;;;;;;;12.60;2.70;;;;;;;15.11;76.69;100543.52;125664;1095;22789;-78
2021/08/10 04:58:27;;;;;;;13.70;3.25;;;;;;;15.21;76.78;100544.07;125685;1096;22778;-77
2021/08/10 05:01:00;;;;;;;8.70;1.93;;;;;;;15.31;77.04;100548.24;125711;1096;25861;-77
2021/08/10 05:03:31;;;;;;;8.90;2.60;;;;;;;15.41;76.92;100544.68;125691;1097;22814;-78
2021/08/10 05:06:04;;;;;;;13.40;2.90;;;;;;;15.51;76.96;100533.25;125679;1096;22800;-78
2021/08/10 05:08:36;;;;;;;13.83;3.50;;;;;;;15.62;76.62;100533.30;125696;1096;22834;-77
2021/08/10 05:11:11;;;;;;;18.00;4.50;;;;;;;15.71;76.52;100530.23;125768;1096;24209;-78
2021/08/10 05:13:43;;;;;;;10.30;2.80;;;;;;;15.79;77.36;100532.05;125694;1095;22837;-78
2021/08/10 05:16:15;;;;;;;10.00;2.60;;;;;;;15.90;76.61;100537.72;125661;1096;22758;-77
2021/08/10 05:18:48;;;;;;;14.20;3.00;;;;;;;15.98;76.45;100538.75;125687;1097;22858;-79
2021/08/10 05:21:20;;;;;;;11.77;2.80;;;;;;;16.08;76.79;100542.09;125660;1095;22767;-78
2021/08/10 05:23:51;;;;;;;13.65;3.10;;;;;;;16.18;77.35;100546.97;125701;1096;22807;-78
2021/08/10 05:26:24;;;;;;;12.00;3.30;;;;;;;16.30;76.84;100550.58;125808;1095;24632;-77
2021/08/10 05:28:56;;;;;;;11.70;2.85;;;;;;;16.43;77.14;100555.71;125683;1096;22790;-77
2021/08/10 05:31:27;;;;;;;13.10;2.90;;;;;;;16.52;76.98;100550.61;125691;1096;22844;-77
2021/08/10 05:33:59;;;;;;;11.50;2.57;;;;;;;16.65;76.96;100550.09;125688;1096;22821;-77
2021/08/10 05:36:30;;;;;;;11.30;2.85;;;;;;;16.79;77.28;100543.41;125653;1096;27166;-77
2021/08/10 05:39:03;;;;;;;8.30;2.10;;;;;;;16.99;77.11;100543.88;125661;1096;23593;-77
2021/08/10 05:41:35;;;;;;;11.80;2.73;;;;;;;17.17;76.97;100545.39;125725;1096;22911;-75
2021/08/10 05:44:06;;;;;;;10.95;2.25;;;;;;;17.33;77.04;100547.38;125779;1095;22831;-75
2021/08/10 05:46:37;;;;;;;14.10;2.55;;;;;;;17.46;76.63;100550.39;125612;1095;26600;-75
2021/08/10 05:49:09;;;;;;;11.00;2.05;;;;;;;17.58;76.95;100551.93;125759;1096;24659;-75
2021/08/10 05:51:40;;;;;;;9.90;1.95;;;;;;;17.72;76.39;100550.05;125698;1096;22889;-75
2021/08/10 05:54:13;;;;;;;7.95;1.70;;;;;;;17.84;76.40;100559.22;125626;1095;22969;-77
2021/08/10 05:56:48;;;;;;;7.55;1.85;;;;;;;17.94;76.24;100563.30;125668;1096;24598;-75
2021/08/10 05:59:24;;;;;;;4.80;1.40;;;;;;;18.01;75.38;100571.98;125904;1096;22886;-77
2021/08/10 06:01:55;;;;;;;5.95;1.50;;;;;;;18.10;75.50;100579.38;125653;1097;22786;-75
2021/08/10 06:04:26;;;;;;;7.40;1.50;;;;;;;18.16;75.43;100572.41;125782;1096;22838;-75
2021/08/10 06:07:01;;;;;;;7.75;1.60;;;;;;;18.27;75.92;100565.91;125693;1096;22955;-75
2021/08/10 06:09:36;;;;;;;5.83;1.83;;;;;;;18.38;75.81;100563.76;125676;1096;23453;-75
2021/08/10 06:12:10;;;;;;;9.30;1.90;;;;;;;18.49;74.88;100562.94;125621;1096;22809;-75
2021/08/10 06:14:43;;;;;;;7.80;1.50;;;;;;;18.58;74.83;100564.67;125779;1096;27291;-77
2021/08/10 06:17:14;;;;;;;9.47;1.70;;;;;;;18.69;74.34;100561.73;125750;1095;25266;-74
2021/08/10 06:19:45;;;;;;;5.83;1.33;;;;;;;18.78;74.01;100562.17;125634;1096;26089;-76
2021/08/10 06:22:17;;;;;;;10.95;2.10;;;;;;;18.86;73.63;100560.30;125686;1097;22886;-75
2021/08/10 06:24:52;;;;;;;7.57;1.70;;;;;;;18.96;73.57;100561.48;125680;1095;22788;-76
2021/08/10 06:27:25;;;;;;;10.00;1.77;;;;;;;19.04;73.41;100555.98;125657;1096;22835;-75
2021/08/10 06:29:57;;;;;;;11.37;1.60;;;;;;;19.10;72.84;100546.14;125760;1096;22803;-76
2021/08/10 06:32:28;;;;;;;10.07;1.90;;;;;;;19.18;72.76;100552.00;125689;1096;25893;-75
2021/08/10 06:35:03;;;;;;;11.27;2.00;;;;;;;19.23;72.45;100543.44;125658;1096;22840;-75
2021/08/10 06:37:45;;;;;;;13.07;1.50;;;;;;;19.35;72.71;100544.09;125633;1096;22786;-75
2021/08/10 06:40:16;;;;;;;14.25;1.80;;;;;;;19.44;72.60;100542.96;125654;1096;26018;-76
2021/08/10 06:42:49;;;;;;;15.30;1.80;;;;;;;19.54;72.40;100535.63;125704;1096;22781;-75
2021/08/10 06:45:20;;;;;;;9.37;1.50;;;;;;;19.64;72.04;100542.44;125720;1096;22796;-76
2021/08/10 06:47:53;;;;;;;12.80;1.83;;;;;;;19.73;71.81;100528.68;125731;1095;22777;-75
2021/08/10 06:50:26;;;;;;;5.63;1.23;;;;;;;19.82;72.04;100530.37;125690;1096;27281;-75
2021/08/10 06:52:58;;;;;;;6.80;1.10;;;;;;;19.92;71.88;100523.78;125672;1096;25951;-75
2021/08/10 06:55:30;;;;;;;6.85;1.10;;;;;;;19.99;71.36;100523.14;125652;1095;22829;-75
2021/08/10 06:58:04;;;;;;;9.65;1.20;;;;;;;20.10;71.41;100520.15;125715;1096;22858;-76
2021/08/10 07:00:36;;;;;;;7.13;1.30;;;;;;;20.24;70.93;100525.88;125648;1096;22779;-76
2021/08/10 07:03:08;;;;;;;4.45;1.25;;;;;;;20.31;70.94;100523.20;125690;1096;22949;-76
2021/08/10 07:05:42;;;;;;;8.25;1.60;;;;;;;20.37;70.27;100520.27;125721;1096;25973;-76
2021/08/10 07:08:12;;;;;;;11.13;1.73;;;;;;;;;;125818;1096;22813;-75
2021/08/10 07:10:44;;;;;;;7.10;1.23;;;;;;;20.51;70.26;100525.44;125656;1095;22816;-75
2021/08/10 07:13:16;;;;;;;6.30;1.33;;;;;;;20.61;69.94;100520.88;125735;1096;22758;-75
2021/08/10 07:15:48;;;;;;;6.33;1.50;;;;;;;20.71;69.94;100524.08;125725;1095;23085;-76
2021/08/10 07:18:19;;;;;;;7.25;1.33;;;;;;;20.82;69.49;100529.53;125738;1097;26382;-75
2021/08/10 07:20:53;;;;;;;8.13;1.40;;;;;;;20.93;69.66;100526.50;125734;1096;22964;-75
2021/08/10 07:23:26;;;;;;;7.00;1.10;;;;;;;21.04;69.14;100526.33;125859;1096;23814;-75
2021/08/10 07:25:58;;;;;;;4.30;1.03;;;;;;;21.12;68.80;100520.75;125642;1096;22807;-76
2021/08/10 07:28:30;;;;;;;8.78;1.40;;;;;;;21.20;69.03;100530.91;125660;1096;26302;-75
2021/08/10 07:31:01;;;;;;;4.33;1.10;;;;;;;21.30;68.21;100525.55;125672;1096;23545;-76
2021/08/10 07:33:32;;;;;;;4.18;1.00;;;;;;;21.35;67.78;100525.45;125675;1095;22899;-76
2021/08/10 07:36:04;;;;;;;18.80;1.60;;;;;;;21.43;67.74;100523.48;125696;1096;22871;-75
2021/08/10 07:38:37;;;;;;;11.30;1.20;;;;;;;21.54;67.78;100531.74;125744;1095;22880;-78
2021/08/10 07:41:09;;;;;;;7.60;0.98;;;;;;;21.62;67.30;100532.60;125814;1096;22803;-75
2021/08/10 07:43:43;;;;;;;5.40;1.40;;;;;;;21.67;67.08;100534.58;125669;1096;22851;-76
2021/08/10 07:46:15;;;;;;;5.95;1.18;;;;;;;21.70;66.35;100527.77;125739;1096;22867;-76
2021/08/10 07:48:46;;;;;;;7.63;1.15;;;;;;;21.74;66.41;100525.39;125661;1096;23509;-76
2021/08/10 07:51:19;;;;;;;6.05;1.10;;;;;;;21.83;66.54;100526.27;125793;1096;22777;-76
2021/08/10 07:53:50;;;;;;;4.45;1.48;;;;;;;21.92;66.72;100525.78;125658;1096;23639;-76
2021/08/10 07:56:30;;;;;;;5.60;1.20;;;;;;;22.01;66.56;100522.48;125680;1096;22816;-78
2021/08/10 07:59:04;;;;;;;5.75;1.10;;;;;;;22.11;66.35;100523.54;125693;1096;22791;-77
2021/08/10 08:01:36;;;;;;;7.85;1.20;;;;;;;22.19;66.10;100516.62;125693;1095;22813;-77
2021/08/10 08:04:11;;;;;;;6.68;2.03;;;;;;;22.28;65.77;100516.15;125783;1096;22938;-76
2021/08/10 08:06:42;;;;;;;4.63;1.00;;;;;;;22.35;64.90;100523.20;125647;1096;23747;-76
2021/08/10 08:09:14;;;;;;;4.65;0.95;;;;;;;22.41;64.79;100526.67;125635;1096;22934;-76
2021/08/10 08:11:46;;;;;;;5.83;1.10;;;;;;;22.47;64.73;100527.32;125651;1096;22818;-76
2021/08/10 08:14:20;;;;;;;4.05;1.00;;;;;;;22.53;64.63;100533.63;125710;1096;22803;-75
2021/08/10 08:16:53;;;;;;;5.83;1.20;;;;;;;22.59;64.17;100539.20;125662;1096;23680;-75
2021/08/10 08:19:24;;;;;;;7.53;1.15;;;;;;;22.62;63.98;100526.69;125851;1096;22809;-76
2021/08/10 08:21:55;;;;;;;4.70;1.00;;;;;;;22.65;64.40;100526.37;125670;1096;27231;-77
2021/08/10 08:24:27;;;;;;;7.25;1.08;;;;;;;22.73;63.70;100537.80;125644;1096;24200;-76
2021/08/10 08:27:01;;;;;;;7.73;1.05;;;;;;;22.81;63.87;100545.09;125699;1097;22823;-76
2021/08/10 08:29:33;;;;;;;6.40;0.90;;;;;;;22.90;63.91;100536.06;125656;1096;22822;-75
2021/08/10 08:32:06;;;;;;;7.35;1.00;;;;;;;23.00;63.80;100534.23;125805;1096;22809;-76
2021/08/10 08:34:38;;;;;;;5.03;1.23;;;;;;;23.10;63.58;100528.78;125616;1096;22793;-77
2021/08/10 08:37:10;;;;;;;4.63;0.98;;;;;;;23.19;62.96;100529.05;125681;1096;22786;-77
2021/08/10 08:39:41;;;;;;;5.13;0.90;;;;;;;23.25;62.41;100523.18;125738;1096;24445;-75
2021/08/10 08:42:15;;;;;;;3.58;0.80;;;;;;;23.29;62.06;100521.50;125719;1095;22796;-75
2021/08/10 08:44:47;;;;;;;8.85;0.88;;;;;;;23.37;62.19;100517.95;125694;1096;22951;-77
2021/08/10 08:47:23;;;;;;;5.15;1.10;;;;;;;23.44;61.64;100517.23;125790;1096;24467;-75
2021/08/10 08:49:57;;;;;;;10.00;1.45;;;;;;;23.49;61.42;100516.29;125658;1095;23485;-76
2021/08/10 08:52:35;;;;;;;7.80;1.10;;;;;;;23.52;60.83;100518.80;126060;1094;23072;-76
2021/08/10 08:55:08;;;;;;;7.35;0.90;;;;;;;23.59;61.32;100512.35;125835;1095;26404;-75
2021/08/10 08:57:39;;;;;;;4.53;0.90;;;;;;;23.68;61.31;100511.83;125798;1096;22843;-75
2021/08/10 09:00:17;;;;;;;6.75;0.70;;;;;;;23.71;59.72;100519.23;125730;1096;22806;-76
2021/08/10 09:02:48;;;;;;;4.48;0.78;;;;;;;23.71;59.35;100524.20;125717;1096;22796;-76
2021/08/10 09:05:20;;;;;;;5.53;0.70;;;;;;;23.74;57.87;100517.35;125679;1096;22784;-76
2021/08/10 09:07:55;;;;;;;4.25;0.78;;;;;;;23.75;56.42;100519.66;125703;1095;22765;-76
2021/08/10 09:10:30;;;;;;;5.50;0.73;;;;;;;23.75;56.72;100513.95;125802;1096;27281;-77
2021/08/10 09:13:02;;;;;;;3.28;0.88;;;;;;;23.83;56.79;100513.97;125700;1096;22800;-75
2021/08/10 09:15:43;;;;;;;5.10;0.97;;;;;;;23.90;57.00;100513.98;125760;1095;23762;-77
2021/08/10 09:18:20;;;;;;;5.60;0.90;;;;;;;23.96;55.82;100506.02;125712;1096;22810;-75
2021/08/10 09:21:10;;;;;;;5.75;0.85;;;;;;;24.01;54.60;100510.03;125736;1096;22796;-76
2021/08/10 09:23:49;;;;;;;3.23;0.50;;;;;;;24.11;54.26;100505.32;125736;1096;22824;-76
2021/08/10 09:26:22;;;;;;;3.63;0.70;;;;;;;24.22;53.90;100492.79;125877;1096;23067;-75
2021/08/10 09:29:01;;;;;;;4.88;1.10;;;;;;;24.29;53.67;100498.52;125672;1096;22818;-76
2021/08/10 09:31:42;;;;;;;5.60;0.70;;;;;;;24.35;53.27;100499.10;125670;1096;25884;-77
2021/08/10 09:34:23;;;;;;;3.45;0.60;;;;;;;24.40;52.79;100498.14;125755;1096;23352;-76
2021/08/10 09:36:56;;;;;;;3.80;0.60;;;;;;;24.46;53.06;100492.23;125787;1096;22884;-75
2021/08/10 09:39:34;;;;;;;4.00;0.75;;;;;;;24.49;51.97;100480.45;125699;1096;22822;-76
2021/08/10 09:42:10;;;;;;;6.70;0.70;;;;;;;24.55;52.26;100483.11;125724;1096;24585;-75
2021/08/10 09:45:00;;;;;;;2.57;0.60;;;;;;;24.59;51.58;100489.20;125767;1096;23234;-75
2021/08/10 09:47:35;;;;;;;4.15;0.70;;;;;;;24.63;52.50;100486.72;125710;1096;24451;-76
2021/08/10 09:50:18;;;;;;;4.05;0.60;;;;;;;24.73;52.66;100484.80;125656;1096;24598;-76
2021/08/10 09:52:50;;;;;;;4.77;0.80;;;;;;;24.85;52.93;100483.88;125695;1096;22899;-76
2021/08/10 09:55:22;;;;;;;5.23;0.80;;;;;;;24.95;52.94;100466.93;125665;1096;22812;-76
2021/08/10 09:58:05;;;;;;;2.48;0.60;;;;;;;25.06;53.17;100468.63;125643;1096;22839;-76
2021/08/10 10:00:41;;;;;;;7.10;0.70;;;;;;;25.14;52.20;100467.23;125660;1096;22806;-76
2021/08/10 10:03:21;;;;;;;5.27;0.67;;;;;;;25.17;50.91;100460.39;125861;1096;22913;-76
2021/08/10 10:05:54;;;;;;;6.38;0.78;;;;;;;25.15;50.96;100457.34;125758;1096;22803;-77
2021/08/10 10:08:26;;;;;;;4.18;0.78;;;;;;;25.20;51.45;100453.50;125754;1096;22867;-76
2021/08/10 10:10:58;;;;;;;4.83;0.70;;;;;;;25.34;51.73;100448.33;125716;1095;24286;-75
2021/08/10 10:13:31;;;;;;;3.78;0.60;;;;;;;25.48;50.29;100443.91;125732;1096;26306;-77
2021/08/10 10:16:04;;;;;;;4.35;0.85;;;;;;;25.54;50.55;100445.22;125693;1096;22802;-75
2021/08/10 10:18:36;;;;;;;5.28;0.78;;;;;;;25.58;50.15;100442.72;125720;1096;22789;-76
2021/08/10 10:21:08;;;;;;;7.70;0.83;;;;;;;25.60;49.91;100431.46;125820;1096;22804;-76
2021/08/10 10:23:42;;;;;;;2.58;0.70;;;;;;;25.66;49.32;100428.38;125681;1096;22788;-76
2021/08/10 10:26:13;;;;;;;5.50;0.65;;;;;;;25.68;50.04;100429.31;125728;1096;22875;-76
2021/08/10 10:28:46;;;;;;;8.10;0.90;;;;;;;25.78;49.69;100425.84;125705;1096;22882;-76
2021/08/10 10:31:18;;;;;;;1.55;0.50;;;;;;;25.86;48.89;100420.83;125796;1096;22781;-76
2021/08/10 10:33:50;;;;;;;6.43;0.70;;;;;;;25.92;49.14;100407.05;125686;1096;22856;-75
2021/08/10 10:36:21;;;;;;;2.83;0.60;;;;;;;25.98;48.75;100410.44;125703;1096;22867;-76
2021/08/10 10:38:58;;;;;;;2.63;0.50;;;;;;;26.01;48.21;100412.89;125732;1096;22796;-76
2021/08/10 10:41:34;;;;;;;2.33;0.40;;;;;;;26.07;48.05;100413.44;125725;1096;22785;-78
2021/08/10 10:44:07;;;;;;;1.95;0.45;;;;;;;26.18;48.71;100415.84;125729;1096;26302;-75
2021/08/10 10:46:40;;;;;;;3.03;0.50;;;;;;;26.28;47.81;100410.98;125739;1096;22800;-78
2021/08/10 10:49:11;;;;;;;3.13;0.60;;;;;;;26.38;48.18;100411.12;125765;1096;22985;-77
2021/08/10 10:51:44;;;;;;;2.98;0.78;;;;;;;26.51;47.99;100404.33;125747;1096;22800;-76
2021/08/10 10:54:27;;;;;;;4.30;0.80;;;;;;;26.53;47.03;100401.63;125761;1096;26544;-77
2021/08/10 10:57:01;;;;;;;4.00;0.70;;;;;;;26.63;47.18;100399.62;125730;1096;22734;-76
2021/08/10 10:59:37;;;;;;;3.70;0.50;;;;;;;26.68;46.89;100407.19;125893;1096;24483;-76
2021/08/10 11:02:23;;;;;;;2.15;0.60;;;;;;;26.81;46.68;100401.94;125721;1096;23405;-75
2021/08/10 11:05:26;;;;;;;1.73;0.40;;;;;;;26.95;45.73;100397.38;125737;1096;22789;-77
2021/08/10 11:07:58;;;;;;;3.48;0.60;;;;;;;27.05;45.61;100394.58;125793;1096;22759;-77
2021/08/10 11:10:45;;;;;;;2.17;0.50;;;;;;;27.15;45.05;100392.55;125735;1096;23462;-76
2021/08/10 11:13:41;;;;;;;5.20;0.60;;;;;;;27.20;44.91;100382.94;125687;1096;27679;-75
2021/08/10 11:16:15;;;;;;;4.48;0.60;;;;;;;27.25;44.44;100373.33;125796;1096;22813;-77
2021/08/10 11:18:48;;;;;;;3.90;0.60;;;;;;;27.22;43.68;100360.17;125716;1096;22813;-78
2021/08/10 11:21:28;;;;;;;3.17;0.57;;;;;;;27.17;44.21;100358.31;125675;1096;27136;-77
2021/08/10 11:24:00;;;;;;;1.90;0.50;;;;;;;27.17;44.12;100355.45;125740;1096;24628;-76
2021/08/10 11:26:43;;;;;;;2.05;0.48;;;;;;;27.22;43.62;100354.44;125741;1096;24512;-77
2021/08/10 11:29:38;;;;;;;2.98;0.90;;;;;;;27.23;43.73;100350.20;125916;1096;22877;-78
2021/08/10 11:32:41;;;;;;;4.03;0.63;;;;;;;27.29;42.92;100356.46;125680;1096;22797;-76
2021/08/10 11:35:41;;;;;;;3.95;0.80;;;;;;;27.32;43.50;100349.52;125822;1096;22840;-76
2021/08/10 11:38:17;;;;;;;4.00;0.50;;;;;;;27.33;42.55;100335.95;125650;1098;22813;-76
2021/08/10 11:41:00;;;;;;;2.85;0.60;;;;;;;27.30;43.48;100345.73;125747;1099;27212;-77
2021/08/10 11:43:41;;;;;;;2.10;0.50;;;;;;;27.30;43.20;100352.23;125881;1098;22827;-77
2021/08/10 11:46:20;;;;;;;12.83;0.70;;;;;;;27.31;42.80;100342.29;125771;1098;23232;-76